createdAt,value
2018-11-13T00:01:52.876Z,9.6
2018-11-13T00:11:52.084Z,9.6
2018-11-13T00:21:51.288Z,9.7
2018-11-13T00:31:50.498Z,9.7
2018-11-13T00:41:49.707Z,9.6
2018-11-13T00:51:48.915Z,9.6
2018-11-13T01:01:48.136Z,9.5
2018-11-13T01:11:47.391Z,9.5
2018-11-13T01:21:46.548Z,9.4
2018-11-13T01:31:45.757Z,9.4
2018-11-13T01:41:44.984Z,9.4
2018-11-13T01:51:44.175Z,9.3
2018-11-13T02:01:43.384Z,9.2
2018-11-13T02:11:42.588Z,9.1
2018-11-13T02:21:41.800Z,9.1
2018-11-13T02:31:41.005Z,9
2018-11-13T02:41:40.216Z,9
2018-11-13T02:51:39.430Z,8.9
2018-11-13T03:01:38.631Z,8.9
2018-11-13T03:11:37.845Z,8.9
2018-11-13T03:21:37.053Z,8.8
2018-11-13T03:31:36.383Z,8.7
2018-11-13T03:41:35.476Z,8.6
2018-11-13T03:51:34.677Z,8.6
2018-11-13T04:01:33.881Z,8.6
2018-11-13T04:11:33.098Z,8.6
2018-11-13T04:21:32.303Z,8.6
2018-11-13T04:31:31.556Z,8.6
2018-11-13T04:41:30.719Z,8.5
2018-11-13T04:51:29.975Z,8.4
2018-11-13T05:01:29.136Z,8.3
2018-11-13T05:11:28.345Z,8.4
2018-11-13T05:21:27.550Z,7.4
2018-11-13T05:31:26.767Z,6.4
2018-11-13T05:41:26.003Z,6.5
2018-11-13T05:51:25.180Z,7.3
2018-11-13T06:01:24.389Z,8.2
2018-11-13T06:11:23.606Z,9.7
2018-11-13T06:21:22.810Z,11.4
2018-11-13T06:31:22.020Z,13.1
2018-11-13T06:41:21.229Z,14.5
2018-11-13T06:51:20.448Z,16.8
2018-11-13T07:01:19.653Z,18.4
2018-11-13T07:11:18.922Z,17.6
2018-11-13T07:21:18.071Z,19.4
2018-11-13T07:31:17.322Z,22
2018-11-13T07:41:16.560Z,22.9
2018-11-13T07:51:15.756Z,23.7
2018-11-13T08:01:14.942Z,23.8
2018-11-13T08:11:14.121Z,24.9
2018-11-13T08:21:13.467Z,24.4
2018-11-13T08:31:12.540Z,24.3
2018-11-13T08:41:11.800Z,23.4
2018-11-13T08:51:10.960Z,22.8
2018-11-13T09:01:10.167Z,21.3
2018-11-13T09:11:09.381Z,17.9
2018-11-13T09:21:08.598Z,17.2
2018-11-13T09:31:07.879Z,14.6
2018-11-13T09:41:07.017Z,14.2
2018-11-13T09:51:06.214Z,14.1
2018-11-13T10:01:05.773Z,15.1
2018-11-13T10:11:04.633Z,16.8
2018-11-13T10:21:03.843Z,17.4
2018-11-13T10:31:03.052Z,16.8
2018-11-13T10:41:02.434Z,16.4
2018-11-13T10:51:01.476Z,15.5
2018-11-13T11:01:00.694Z,15.5
2018-11-13T11:10:59.893Z,15.3
2018-11-13T11:20:59.098Z,14.3
2018-11-13T11:30:58.369Z,14.1
2018-11-13T11:40:57.523Z,13.5
2018-11-13T11:50:56.739Z,13.6
2018-11-13T12:00:55.935Z,13.4
2018-11-13T12:10:55.147Z,13.1
2018-11-13T12:20:54.361Z,13.1
2018-11-13T12:30:53.560Z,13.1
2018-11-13T12:40:52.865Z,12.9
2018-11-13T12:50:51.978Z,12.8
2018-11-13T13:00:51.187Z,12.8
2018-11-13T13:10:50.400Z,12.6
2018-11-13T13:20:49.614Z,12.7
2018-11-13T13:30:48.818Z,12.4
2018-11-13T13:40:48.030Z,12.4
2018-11-13T13:50:47.231Z,12.3
2018-11-13T14:00:46.541Z,12.1
2018-11-13T14:10:45.651Z,12.1
2018-11-13T14:20:44.939Z,11.9
2018-11-13T14:30:44.068Z,11.7
2018-11-13T14:40:43.276Z,11.4
2018-11-13T14:50:42.501Z,11.3
2018-11-13T15:00:41.696Z,11.2
2018-11-13T15:10:40.904Z,11
2018-11-13T15:20:40.114Z,10.8
2018-11-13T15:30:39.334Z,10.6
2018-11-13T15:40:38.528Z,10.3
2018-11-13T15:50:37.739Z,9.9
2018-11-13T16:00:36.941Z,10.4
2018-11-13T16:10:36.155Z,10.8
2018-11-13T16:20:35.372Z,10.8
2018-11-13T16:30:34.697Z,10.9
2018-11-13T16:40:33.778Z,11
2018-11-13T16:50:32.988Z,11
2018-11-13T17:00:32.242Z,11
2018-11-13T17:10:31.434Z,11
2018-11-13T17:20:30.649Z,10.9
2018-11-13T17:30:29.922Z,10.9
2018-11-13T17:40:29.039Z,10.8
2018-11-13T17:50:28.247Z,10.8
2018-11-13T18:00:27.461Z,10.7
2018-11-13T18:10:26.671Z,10.7
2018-11-13T18:20:25.885Z,10.6
2018-11-13T18:30:25.090Z,10.6
2018-11-13T18:40:24.305Z,10.5
2018-11-13T18:50:23.533Z,10.5
2018-11-13T19:00:22.733Z,10.5
2018-11-13T19:10:21.998Z,10.4
2018-11-13T19:20:21.240Z,10.4
2018-11-13T19:30:20.496Z,10.3
2018-11-13T19:40:19.607Z,10.3
2018-11-13T19:50:18.821Z,10.1
2018-11-13T20:00:18.036Z,10.1
2018-11-13T20:10:17.263Z,10.1
2018-11-13T20:20:16.473Z,10
2018-11-13T20:30:15.707Z,9.9
2018-11-13T20:40:14.883Z,9.9
2018-11-13T20:50:14.100Z,9.6
2018-11-13T21:00:13.312Z,9.5
2018-11-13T21:10:12.523Z,9.3
2018-11-13T21:20:11.736Z,9.3
2018-11-13T21:30:11.045Z,9.3
2018-11-13T21:40:10.158Z,9.2
2018-11-13T21:50:09.367Z,9.2
2018-11-13T22:00:08.582Z,9.3
2018-11-13T22:10:07.786Z,9.2
2018-11-13T22:20:07.000Z,9.2
2018-11-13T22:30:06.206Z,9.2
2018-11-13T22:40:05.424Z,9
2018-11-13T22:50:04.631Z,9.1
2018-11-13T23:00:03.883Z,9.3
2018-11-13T23:10:03.050Z,9.3
2018-11-13T23:20:02.256Z,9.3
2018-11-13T23:30:01.467Z,9.3
2018-11-13T23:40:00.764Z,9.3
2018-11-13T23:49:59.893Z,9.1
2018-11-13T23:59:59.100Z,9.1
